createdAt,value
2023-01-06T00:01:22.891Z,33.88
2023-01-06T00:04:26.565Z,34.11
2023-01-06T00:07:29.769Z,33.92
2023-01-06T00:10:32.906Z,33.93
2023-01-06T00:13:36.188Z,34.19
2023-01-06T00:16:40.766Z,34.17
2023-01-06T00:19:43.830Z,34.29
2023-01-06T00:22:47.003Z,34.34
2023-01-06T00:25:51.540Z,33.99
2023-01-06T00:28:55.830Z,34.13
2023-01-06T00:32:02.681Z,34.25
2023-01-06T00:35:07.036Z,34.05
2023-01-06T00:38:10.411Z,33.96
2023-01-06T00:41:32.841Z,34.50
2023-01-06T00:44:37.742Z,34.34
2023-01-06T00:47:43.045Z,34.01
2023-01-06T00:50:46.125Z,34.37
2023-01-06T00:53:49.957Z,34.31
2023-01-06T00:56:57.348Z,34.30
2023-01-06T01:00:01.082Z,34.42
2023-01-06T01:03:05.595Z,34.35
2023-01-06T01:06:10.596Z,34.37
2023-01-06T01:09:15.874Z,34.50
2023-01-06T01:12:19.009Z,34.48
2023-01-06T01:15:22.599Z,34.63
2023-01-06T01:18:27.579Z,34.30
2023-01-06T01:21:30.964Z,34.51
2023-01-06T01:24:34.739Z,34.38
2023-01-06T01:27:37.887Z,34.54
2023-01-06T01:30:41.337Z,34.72
2023-01-06T01:33:46.428Z,34.43
2023-01-06T01:36:51.056Z,34.70
2023-01-06T01:39:54.300Z,34.72
2023-01-06T01:42:57.430Z,34.47
2023-01-06T01:46:00.883Z,34.83
2023-01-06T01:49:11.587Z,34.40
2023-01-06T01:52:16.004Z,34.76
2023-01-06T01:55:22.114Z,34.84
2023-01-06T01:58:28.445Z,34.93
2023-01-06T02:01:32.731Z,34.51
2023-01-06T02:04:42.950Z,34.84
2023-01-06T02:07:48.432Z,35.01
2023-01-06T02:10:51.932Z,34.58
2023-01-06T02:14:08.209Z,34.93
2023-01-06T02:17:22.914Z,34.87
2023-01-06T02:20:43.079Z,34.99
2023-01-06T02:24:04.960Z,34.68
2023-01-06T02:27:34.555Z,35.07
2023-01-06T02:31:07.155Z,35.18
2023-01-06T02:34:21.984Z,34.95
2023-01-06T02:37:39.362Z,34.93
2023-01-06T02:40:55.123Z,34.80
2023-01-06T02:44:04.822Z,35.25
2023-01-06T02:47:16.705Z,34.99
2023-01-06T02:50:27.732Z,35.07
2023-01-06T02:53:39.584Z,35.22
2023-01-06T02:56:48.137Z,35.20
2023-01-06T02:59:59.769Z,34.71
2023-01-06T03:03:08.585Z,35.06
2023-01-06T03:06:17.005Z,35.00
2023-01-06T03:09:29.599Z,34.97
2023-01-06T03:12:39.254Z,34.85
2023-01-06T03:15:43.079Z,35.10
2023-01-06T03:18:49.629Z,34.99
2023-01-06T03:21:55.853Z,35.08
2023-01-06T03:24:59.723Z,35.13
2023-01-06T03:28:02.749Z,35.14
2023-01-06T03:31:16.089Z,35.06
2023-01-06T03:34:28.290Z,34.84
2023-01-06T03:37:44.195Z,34.72
2023-01-06T03:40:57.924Z,34.74
2023-01-06T03:44:06.528Z,35.20
2023-01-06T03:47:17.383Z,34.92
2023-01-06T03:50:26.248Z,35.20
2023-01-06T03:53:38.193Z,35.22
2023-01-06T03:56:46.469Z,35.23
2023-01-06T03:59:54.555Z,35.05
2023-01-06T04:02:57.849Z,35.11
2023-01-06T04:06:02.106Z,35.17
2023-01-06T04:09:07.362Z,34.99
2023-01-06T04:12:27.737Z,35.15
2023-01-06T04:15:31.369Z,34.94
2023-01-06T04:18:34.512Z,35.08
2023-01-06T04:21:37.698Z,35.38
2023-01-06T04:24:42.533Z,35.05
2023-01-06T04:27:45.733Z,35.30
2023-01-06T04:30:49.009Z,35.17
2023-01-06T04:33:52.285Z,35.05
2023-01-06T04:36:55.275Z,35.35
2023-01-06T04:39:59.725Z,35.38
2023-01-06T04:43:05.889Z,35.59
2023-01-06T04:46:09.582Z,35.47
2023-01-06T04:49:12.678Z,35.71
2023-01-06T04:52:17.012Z,35.66
2023-01-06T04:55:21.682Z,35.53
2023-01-06T04:58:24.745Z,35.65
2023-01-06T05:01:28.713Z,36.31
2023-01-06T05:04:40.028Z,36.15
2023-01-06T05:07:50.045Z,36.34
2023-01-06T05:11:01.083Z,36.31
2023-01-06T05:14:04.256Z,36.83
2023-01-06T05:17:07.495Z,37.13
2023-01-06T05:20:12.051Z,36.85
2023-01-06T05:23:15.106Z,37.24
2023-01-06T05:26:22.121Z,36.90
2023-01-06T05:29:25.481Z,36.65
2023-01-06T05:32:28.730Z,36.66
2023-01-06T05:35:31.765Z,36.75
2023-01-06T05:38:35.105Z,36.88
2023-01-06T05:41:39.782Z,36.27
2023-01-06T05:44:42.812Z,36.56
2023-01-06T05:47:46.332Z,36.20
2023-01-06T05:50:49.683Z,36.14
2023-01-06T05:53:52.883Z,36.24
2023-01-06T05:56:57.689Z,36.18
2023-01-06T06:00:00.797Z,36.17
2023-01-06T06:03:04.066Z,35.82
2023-01-06T06:06:08.200Z,36.02
2023-01-06T06:09:12.012Z,35.67
2023-01-06T06:12:16.607Z,36.10
2023-01-06T06:15:19.796Z,35.83
2023-01-06T06:18:23.160Z,35.82
2023-01-06T06:21:27.808Z,35.63
2023-01-06T06:24:31.304Z,35.61
2023-01-06T06:27:36.068Z,35.97
2023-01-06T06:30:39.193Z,36.11
2023-01-06T06:33:42.631Z,35.49
2023-01-06T06:36:45.859Z,36.03
2023-01-06T06:39:48.910Z,35.78
2023-01-06T06:42:54.677Z,35.51
2023-01-06T06:45:57.820Z,35.71
2023-01-06T06:49:01.352Z,35.70
2023-01-06T06:52:04.719Z,35.38
2023-01-06T06:55:08.747Z,35.78
2023-01-06T06:58:13.608Z,35.43
2023-01-06T07:01:18.926Z,35.64
2023-01-06T07:04:22.469Z,35.04
2023-01-06T07:07:26.054Z,34.09
2023-01-06T07:10:30.086Z,33.99
2023-01-06T07:13:34.794Z,33.97
2023-01-06T07:16:37.811Z,33.84
2023-01-06T07:19:40.880Z,34.05
2023-01-06T07:22:46.736Z,33.68
2023-01-06T07:25:53.274Z,33.94
2023-01-06T07:28:57.667Z,34.17
2023-01-06T07:32:01.027Z,34.28
2023-01-06T07:35:04.107Z,33.94
2023-01-06T07:38:08.391Z,34.08
2023-01-06T07:41:11.710Z,34.12
2023-01-06T07:44:17.950Z,34.16
2023-01-06T07:47:21.133Z,34.02
2023-01-06T07:50:26.313Z,33.90
2023-01-06T07:53:29.527Z,34.36
2023-01-06T07:56:32.705Z,33.98
2023-01-06T07:59:37.419Z,34.35
2023-01-06T08:02:40.606Z,34.33
2023-01-06T08:05:44.488Z,34.20
2023-01-06T08:08:47.756Z,33.87
2023-01-06T08:11:51.291Z,34.15
2023-01-06T08:14:55.998Z,33.93
2023-01-06T08:17:59.116Z,34.11
2023-01-06T08:21:03.264Z,33.94
2023-01-06T08:24:06.972Z,34.45
2023-01-06T08:27:10.245Z,34.16
2023-01-06T08:30:20.052Z,34.49
2023-01-06T08:33:24.237Z,34.01
2023-01-06T08:36:27.413Z,34.25
2023-01-06T08:39:30.714Z,34.51
2023-01-06T08:42:36.012Z,34.25
2023-01-06T08:45:42.747Z,34.59
2023-01-06T08:48:49.148Z,34.39
2023-01-06T08:51:52.385Z,34.39
2023-01-06T08:54:55.485Z,34.52
2023-01-06T08:57:58.819Z,34.47
2023-01-06T09:01:03.281Z,34.40
2023-01-06T09:04:08.999Z,34.31
2023-01-06T09:07:12.113Z,34.90
2023-01-06T09:10:15.218Z,34.62
2023-01-06T09:13:18.803Z,34.72
2023-01-06T09:16:23.719Z,34.54
2023-01-06T09:19:27.250Z,34.68
2023-01-06T09:22:30.543Z,34.98
2023-01-06T09:25:33.620Z,34.50
2023-01-06T09:28:37.458Z,34.89
2023-01-06T09:31:41.943Z,34.50
2023-01-06T09:34:45.114Z,34.39
2023-01-06T09:37:48.275Z,34.44
2023-01-06T09:41:06.950Z,34.31
2023-01-06T09:44:14.335Z,34.69
2023-01-06T09:47:25.978Z,34.71
2023-01-06T09:50:35.116Z,34.44
2023-01-06T09:53:43.547Z,34.35
2023-01-06T09:56:50.310Z,34.17
2023-01-06T09:59:58.108Z,34.66
2023-01-06T10:03:02.895Z,34.38
2023-01-06T10:06:25.709Z,34.72
2023-01-06T10:09:36.653Z,34.49
2023-01-06T10:12:51.526Z,34.39
2023-01-06T10:16:05.317Z,34.19
2023-01-06T10:19:20.865Z,34.21
2023-01-06T10:22:33.731Z,34.28
2023-01-06T10:25:42.334Z,34.74
2023-01-06T10:28:48.372Z,34.11
2023-01-06T10:31:55.863Z,34.26
2023-01-06T10:35:02.013Z,34.62
2023-01-06T10:38:11.403Z,34.34
2023-01-06T10:41:23.811Z,34.50
2023-01-06T10:44:26.917Z,34.52
2023-01-06T10:47:32.986Z,34.23
2023-01-06T10:50:37.493Z,34.23
2023-01-06T10:53:40.494Z,34.02
2023-01-06T10:56:49.732Z,34.58
2023-01-06T11:00:17.824Z,34.50
2023-01-06T11:03:37.879Z,34.57
2023-01-06T11:06:46.310Z,34.78
2023-01-06T11:09:52.150Z,34.29
2023-01-06T11:12:57.411Z,34.58
2023-01-06T11:16:03.480Z,34.73
2023-01-06T11:19:08.798Z,34.54
2023-01-06T11:22:35.224Z,34.32
2023-01-06T11:25:38.727Z,34.72
2023-01-06T11:28:42.914Z,34.75
2023-01-06T11:31:49.994Z,34.84
2023-01-06T11:34:56.739Z,34.91
2023-01-06T11:38:01.574Z,34.67
2023-01-06T11:41:10.756Z,34.63
2023-01-06T11:44:20.318Z,34.60
2023-01-06T11:47:26.187Z,34.57
2023-01-06T11:50:29.384Z,34.54
2023-01-06T11:53:34.488Z,34.97
2023-01-06T11:56:37.681Z,34.82
2023-01-06T11:59:52.915Z,34.94
2023-01-06T12:03:03.982Z,34.82
2023-01-06T12:06:18.992Z,34.58
2023-01-06T12:09:29.981Z,34.81
2023-01-06T12:12:34.364Z,34.77
2023-01-06T12:15:40.992Z,34.89
2023-01-06T12:18:44.687Z,34.71
2023-01-06T12:21:47.801Z,35.32
2023-01-06T12:24:54.159Z,35.14
2023-01-06T12:28:01.395Z,34.86
2023-01-06T12:31:12.023Z,35.06
2023-01-06T12:34:21.138Z,35.21
2023-01-06T12:37:29.626Z,35.22
2023-01-06T12:40:40.955Z,35.03
2023-01-06T12:43:52.043Z,34.57
2023-01-06T12:47:01.121Z,35.16
2023-01-06T12:50:11.228Z,35.10
2023-01-06T12:53:21.211Z,34.61
2023-01-06T12:56:40.715Z,35.00
2023-01-06T12:59:59.585Z,35.08
2023-01-06T13:03:27.156Z,34.88
2023-01-06T13:06:43.144Z,35.96
2023-01-06T13:09:58.767Z,35.83
2023-01-06T13:13:28.082Z,35.61
2023-01-06T13:16:41.958Z,35.27
2023-01-06T13:19:51.361Z,35.97
2023-01-06T13:23:08.429Z,35.68
2023-01-06T13:26:29.254Z,35.79
2023-01-06T13:29:50.255Z,35.95
2023-01-06T13:33:09.572Z,36.05
2023-01-06T13:36:27.842Z,35.94
2023-01-06T13:39:36.197Z,35.59
2023-01-06T13:42:43.431Z,35.55
2023-01-06T13:45:53.545Z,35.47
2023-01-06T13:49:01.767Z,36.09
2023-01-06T13:52:15.336Z,35.46
2023-01-06T13:55:31.040Z,35.66
2023-01-06T13:58:38.465Z,35.58
2023-01-06T14:01:43.302Z,35.82
2023-01-06T14:04:49.709Z,36.06
2023-01-06T14:07:55.581Z,35.88
2023-01-06T14:11:15.725Z,35.92
2023-01-06T14:14:25.323Z,35.47
2023-01-06T14:17:38.935Z,35.47
2023-01-06T14:20:42.175Z,35.48
2023-01-06T14:23:55.184Z,35.85
2023-01-06T14:27:02.608Z,35.74
2023-01-06T14:30:21.695Z,35.41
2023-01-06T14:33:36.803Z,35.34
2023-01-06T14:36:41.218Z,35.75
2023-01-06T14:39:49.743Z,35.48
2023-01-06T14:42:53.873Z,35.50
2023-01-06T14:45:59.026Z,35.79
2023-01-06T14:49:06.559Z,35.52
2023-01-06T14:52:18.379Z,35.32
2023-01-06T14:55:25.207Z,35.83
2023-01-06T14:58:32.559Z,35.41
2023-01-06T15:01:38.552Z,35.68
2023-01-06T15:04:45.126Z,35.17
2023-01-06T15:07:59.415Z,35.50
2023-01-06T15:11:19.152Z,35.33
2023-01-06T15:14:30.377Z,35.29
2023-01-06T15:17:33.920Z,35.18
2023-01-06T15:20:44.622Z,35.03
2023-01-06T15:23:51.035Z,35.65
2023-01-06T15:26:57.185Z,35.25
2023-01-06T15:30:00.277Z,35.25
2023-01-06T15:33:05.512Z,35.41
2023-01-06T15:36:15.695Z,35.43
2023-01-06T15:39:27.933Z,35.38
2023-01-06T15:42:31.363Z,35.07
2023-01-06T15:45:34.609Z,35.49
2023-01-06T15:48:42.371Z,35.35
2023-01-06T15:51:55.831Z,35.42
2023-01-06T15:55:01.898Z,35.53
2023-01-06T15:58:09.282Z,34.88
2023-01-06T16:01:17.097Z,35.24
2023-01-06T16:04:22.089Z,35.20
2023-01-06T16:07:39.482Z,34.96
2023-01-06T16:10:44.071Z,34.91
2023-01-06T16:13:59.997Z,35.04
2023-01-06T16:17:08.098Z,35.33
2023-01-06T16:20:25.681Z,34.98
2023-01-06T16:23:34.569Z,35.03
2023-01-06T16:26:45.446Z,34.95
2023-01-06T16:29:48.740Z,35.13
2023-01-06T16:32:54.026Z,34.71
2023-01-06T16:35:57.101Z,34.80
2023-01-06T16:39:01.678Z,35.06
2023-01-06T16:42:55.093Z,34.83
2023-01-06T16:46:06.381Z,34.83
2023-01-06T16:49:11.824Z,35.09
2023-01-06T16:52:15.241Z,35.06
2023-01-06T16:55:21.770Z,34.97
2023-01-06T17:01:46.384Z,35.53
2023-01-06T17:04:52.142Z,35.68
2023-01-06T17:08:01.895Z,35.65
2023-01-06T17:11:17.885Z,35.44
2023-01-06T17:14:43.257Z,35.49
2023-01-06T17:17:53.077Z,35.21
2023-01-06T17:21:28.759Z,35.85
2023-01-06T17:25:00.233Z,35.32
2023-01-06T17:28:49.317Z,35.76
2023-01-06T17:35:38.300Z,35.60
2023-01-06T17:38:46.350Z,35.42
2023-01-06T17:41:50.613Z,35.18
2023-01-06T17:45:00.045Z,35.37
2023-01-06T17:48:11.237Z,35.17
2023-01-06T17:51:17.089Z,35.35
2023-01-06T17:54:43.316Z,35.20
2023-01-06T17:57:51.523Z,35.61
2023-01-06T18:04:44.244Z,35.41
2023-01-06T18:07:49.357Z,35.43
2023-01-06T18:10:54.973Z,35.42
2023-01-06T18:14:17.731Z,35.58
2023-01-06T18:17:37.068Z,35.28
2023-01-06T18:20:41.280Z,35.52
2023-01-06T18:23:47.055Z,35.49
2023-01-06T18:26:52.296Z,35.51
2023-01-06T18:30:02.266Z,35.73
2023-01-06T18:33:18.712Z,35.43
2023-01-06T18:36:22.071Z,35.40
2023-01-06T18:39:28.223Z,35.66
2023-01-06T18:42:34.210Z,35.65
2023-01-06T18:45:39.377Z,35.90
2023-01-06T18:48:45.511Z,36.08
2023-01-06T18:51:49.688Z,35.73
2023-01-06T18:54:53.340Z,35.92
2023-01-06T18:58:00.762Z,35.65
2023-01-06T19:01:13.458Z,36.17
2023-01-06T19:04:22.607Z,36.03
2023-01-06T19:07:30.209Z,36.07
2023-01-06T19:10:34.836Z,36.29
2023-01-06T19:13:41.778Z,35.88
2023-01-06T19:16:50.972Z,35.83
2023-01-06T19:19:57.234Z,36.21
2023-01-06T19:23:00.716Z,35.69
2023-01-06T19:26:08.079Z,35.82
2023-01-06T19:29:15.051Z,36.54
2023-01-06T19:32:24.268Z,36.36
2023-01-06T19:35:31.666Z,36.55
2023-01-06T19:38:38.472Z,36.25
2023-01-06T19:41:41.993Z,36.66
2023-01-06T19:44:45.761Z,36.79
2023-01-06T19:47:51.020Z,36.79
2023-01-06T19:51:03.763Z,36.78
2023-01-06T19:54:27.733Z,37.17
2023-01-06T19:57:40.318Z,37.08
2023-01-06T20:00:48.074Z,37.42
2023-01-06T20:03:54.684Z,37.45
2023-01-06T20:06:59.405Z,37.47
2023-01-06T20:10:02.676Z,37.30
2023-01-06T20:13:06.461Z,37.73
2023-01-06T20:16:11.517Z,37.19
2023-01-06T20:19:16.362Z,37.38
2023-01-06T20:22:22.358Z,37.57
2023-01-06T20:25:28.772Z,37.37
2023-01-06T20:28:32.922Z,37.83
2023-01-06T20:31:37.075Z,37.40
2023-01-06T20:34:40.454Z,37.79
2023-01-06T20:37:45.385Z,37.71
2023-01-06T20:40:49.079Z,37.33
2023-01-06T20:43:56.065Z,37.42
2023-01-06T20:47:00.697Z,37.27
2023-01-06T20:50:13.953Z,37.60
2023-01-06T20:53:19.954Z,37.53
2023-01-06T20:56:38.616Z,37.54
2023-01-06T20:59:45.863Z,37.34
2023-01-06T21:02:49.849Z,37.64
2023-01-06T21:05:55.253Z,37.09
2023-01-06T21:09:00.369Z,37.18
2023-01-06T21:12:06.130Z,37.45
2023-01-06T21:15:11.286Z,37.46
2023-01-06T21:18:17.047Z,37.58
2023-01-06T21:21:21.031Z,37.41
2023-01-06T21:24:26.728Z,36.98
2023-01-06T21:27:30.184Z,37.59
2023-01-06T21:30:33.478Z,37.41
2023-01-06T21:33:38.139Z,37.15
2023-01-06T21:36:41.676Z,37.21
2023-01-06T21:39:48.040Z,37.09
2023-01-06T21:43:08.702Z,37.15
2023-01-06T21:46:12.355Z,37.11
2023-01-06T21:49:15.643Z,37.05
2023-01-06T21:52:21.697Z,36.86
2023-01-06T21:55:26.797Z,37.09
2023-01-06T21:58:31.463Z,37.36
2023-01-06T22:01:35.170Z,36.90
2023-01-06T22:04:38.293Z,36.80
2023-01-06T22:07:45.337Z,37.08
2023-01-06T22:10:50.987Z,36.73
2023-01-06T22:13:54.688Z,36.48
2023-01-06T22:17:00.484Z,36.47
2023-01-06T22:20:05.491Z,35.77
2023-01-06T22:23:12.323Z,35.91
2023-01-06T22:26:17.117Z,36.13
2023-01-06T22:29:20.297Z,35.56
2023-01-06T22:32:24.821Z,35.84
2023-01-06T22:35:29.334Z,35.86
2023-01-06T22:38:33.940Z,35.87
2023-01-06T22:41:38.623Z,35.44
2023-01-06T22:44:42.343Z,35.49
2023-01-06T22:47:45.738Z,35.64
2023-01-06T22:50:56.481Z,35.54
2023-01-06T22:53:59.879Z,35.45
2023-01-06T22:57:04.626Z,35.19
2023-01-06T23:00:13.864Z,35.33
2023-01-06T23:03:17.260Z,35.05
2023-01-06T23:06:20.675Z,35.04
2023-01-06T23:09:24.096Z,34.85
2023-01-06T23:12:28.666Z,35.24
2023-01-06T23:15:33.616Z,34.89
2023-01-06T23:18:39.000Z,34.88
2023-01-06T23:21:44.658Z,34.94
2023-01-06T23:24:47.781Z,34.45
2023-01-06T23:27:52.531Z,34.90
2023-01-06T23:31:01.934Z,34.87
2023-01-06T23:34:07.778Z,34.71
2023-01-06T23:37:10.768Z,34.45
2023-01-06T23:40:14.337Z,34.34
2023-01-06T23:43:19.105Z,34.36
2023-01-06T23:46:25.390Z,34.43
2023-01-06T23:49:28.847Z,34.47
2023-01-06T23:52:34.898Z,33.92
2023-01-06T23:55:37.912Z,34.46
2023-01-06T23:58:44.529Z,34.51
